Time;durP1;ratioP1;P1;durP2;ratioP2;P2;SDS_P1;SDS_P2;PMS_P1;PMS_P2;Temp;Humidity;BMP_temperature;BMP_pressure;BME280_temperature;BME280_humidity;BME280_pressure;Samples;Min_cycle;Max_cycle;Signal;HPM_P1;HPM_P2
2024/04/16 00:00:14;;;;;;;0.68;0.32;;;;;;;20.79;41.47;99792.75;5427169;26;20430;-75
2024/04/16 00:02:40;;;;;;;0.85;0.38;;;;;;;20.77;41.62;99784.22;5436844;26;20006;-74
2024/04/16 00:05:06;;;;;;;1.02;0.47;;;;;;;20.77;41.31;99782.41;5473896;26;20006;-74
2024/04/16 00:07:32;;;;;;;0.60;0.40;;;;;;;20.79;41.73;99779.53;5476673;26;19999;-74
2024/04/16 00:09:58;;;;;;;1.13;0.60;;;;;;;20.76;41.61;99777.31;5413516;26;20296;-74
2024/04/16 00:12:24;;;;;;;0.43;0.30;;;;;;;20.75;41.52;99770.41;5471182;26;20001;-74
2024/04/16 00:15:10;;;;;;;1.02;0.30;;;;;;;20.74;41.93;99759.00;5475340;26;20691;-72
2024/04/16 00:17:36;;;;;;;1.67;0.60;;;;;;;20.76;41.45;99761.44;5475659;26;20586;-74
2024/04/16 00:20:02;;;;;;;0.50;0.25;;;;;;;20.69;41.43;99761.50;5414603;26;20010;-74
2024/04/16 00:22:28;;;;;;;1.48;0.40;;;;;;;20.70;41.46;99747.25;5453398;26;20373;-74
2024/04/16 00:24:54;;;;;;;0.52;0.30;;;;;;;20.71;40.99;99751.50;5470246;26;20010;-73
2024/04/16 00:27:20;;;;;;;1.05;0.40;;;;;;;20.72;41.04;99747.03;5472643;26;20515;-74
2024/04/16 00:29:46;;;;;;;0.60;0.35;;;;;;;20.71;41.40;99746.22;5473873;26;20303;-74
2024/04/16 00:32:12;;;;;;;0.88;0.30;;;;;;;20.70;41.53;99751.72;5473577;26;20013;-74
2024/04/16 00:34:38;;;;;;;1.30;0.50;;;;;;;20.67;41.13;99739.72;5445129;26;20009;-74
2024/04/16 00:37:04;;;;;;;0.82;0.38;;;;;;;20.64;41.53;99745.41;5470838;26;19998;-74
2024/04/16 00:39:30;;;;;;;0.30;0.30;;;;;;;20.66;41.21;99747.88;5471735;26;20046;-74
2024/04/16 00:41:56;;;;;;;1.00;0.40;;;;;;;20.66;41.14;99746.03;5477875;26;19998;-74
2024/04/16 00:44:24;;;;;;;0.95;0.40;;;;;;;20.67;41.39;99760.06;5443314;26;20067;-74
2024/04/16 00:46:51;;;;;;;0.57;0.30;;;;;;;20.65;41.47;99762.13;5441891;26;20002;-74
2024/04/16 00:49:17;;;;;;;0.75;0.40;;;;;;;20.59;41.52;99755.00;5473982;26;20014;-73
2024/04/16 00:51:44;;;;;;;0.52;0.30;;;;;;;20.59;41.89;99753.19;5442903;26;20469;-73
2024/04/16 00:54:10;;;;;;;0.25;0.20;;;;;;;20.63;41.45;99757.00;5469961;26;20010;-74
2024/04/16 00:56:36;;;;;;;0.22;0.15;;;;;;;20.61;41.26;99768.84;5446276;26;19998;-73
2024/04/16 00:59:03;;;;;;;0.63;0.30;;;;;;;20.60;41.09;99760.09;5469701;26;20002;-73
2024/04/16 01:01:29;;;;;;;0.55;0.30;;;;;;;20.59;41.29;99757.66;5471783;26;20284;-74
2024/04/16 01:03:56;;;;;;;0.65;0.30;;;;;;;20.56;41.42;99760.72;5438651;26;19998;-73
2024/04/16 01:06:26;;;;;;;0.40;0.22;;;;;;;20.62;41.16;99757.22;5473252;26;20013;-73
2024/04/16 01:08:52;;;;;;;1.13;0.38;;;;;;;20.60;41.28;99762.72;5474142;26;19993;-73
2024/04/16 01:11:25;;;;;;;0.73;0.28;;;;;;;20.56;41.44;99753.59;5444290;26;19994;-75
2024/04/16 01:13:52;;;;;;;0.35;0.20;;;;;;;20.58;41.67;99753.38;5473955;26;20013;-73
2024/04/16 01:16:18;;;;;;;1.02;0.50;;;;;;;20.56;41.43;99753.59;5478525;26;20016;-74
2024/04/16 01:18:44;;;;;;;0.32;0.25;;;;;;;20.57;41.58;99747.28;5473001;26;20002;-73
2024/04/16 01:21:10;;;;;;;1.35;0.40;;;;;;;20.59;41.50;99755.00;5467057;26;20801;-70
2024/04/16 01:23:36;;;;;;;0.45;0.22;;;;;;;20.51;41.41;99735.72;5472455;26;20003;-74
2024/04/16 01:26:02;;;;;;;0.60;0.35;;;;;;;20.54;41.20;99742.44;5472007;26;20010;-75
2024/04/16 01:28:28;;;;;;;0.50;0.25;;;;;;;20.51;41.18;99735.72;5469538;26;20017;-74
2024/04/16 01:30:54;;;;;;;0.28;0.25;;;;;;;20.55;41.27;99727.38;5447319;26;20009;-73
2024/04/16 01:33:20;;;;;;;1.17;0.30;;;;;;;20.56;41.68;99731.63;5470850;26;20138;-74
2024/04/16 01:35:46;;;;;;;1.50;0.20;;;;;;;20.48;41.73;99728.22;5475553;26;20017;-73
2024/04/16 01:38:12;;;;;;;0.30;0.20;;;;;;;20.48;41.67;99727.41;5416340;26;19994;-72
2024/04/16 01:40:38;;;;;;;0.80;0.30;;;;;;;20.50;41.24;99717.44;5438024;26;19995;-71
2024/04/16 01:43:04;;;;;;;0.70;0.38;;;;;;;20.47;41.47;99713.38;5470917;26;20712;-73
2024/04/16 01:45:30;;;;;;;0.50;0.17;;;;;;;20.47;41.81;99705.44;5470151;26;20030;-73
2024/04/16 01:47:56;;;;;;;0.40;0.30;;;;;;;20.47;41.33;99702.78;5477380;26;20009;-74
2024/04/16 01:50:22;;;;;;;0.35;0.20;;;;;;;20.44;41.51;99700.53;5474052;26;20007;-73
2024/04/16 01:52:48;;;;;;;0.47;0.32;;;;;;;20.44;41.16;99694.44;5475687;26;20006;-72
2024/04/16 01:55:14;;;;;;;0.20;0.20;;;;;;;20.45;41.73;99696.06;5471442;26;20005;-72
2024/04/16 01:57:40;;;;;;;0.17;0.17;;;;;;;20.45;41.46;99698.72;5441372;26;20006;-73
2024/04/16 02:00:07;;;;;;;0.38;0.30;;;;;;;20.44;41.80;99694.44;5445642;26;20467;-74
2024/04/16 02:02:39;;;;;;;0.30;0.30;;;;;;;20.41;41.36;99687.75;5470558;26;20299;-75
2024/04/16 02:05:06;;;;;;;0.52;0.30;;;;;;;20.41;41.54;99692.22;5475066;26;20075;-72
2024/04/16 02:07:32;;;;;;;0.30;0.20;;;;;;;20.41;41.28;99697.53;5473435;26;20660;-74
2024/04/16 02:09:58;;;;;;;1.38;0.50;;;;;;;20.41;41.43;99702.81;5467434;26;20002;-73
2024/04/16 02:12:24;;;;;;;0.60;0.20;;;;;;;20.41;41.79;99702.81;5472054;26;19998;-74
2024/04/16 02:14:50;;;;;;;0.98;0.30;;;;;;;20.39;41.69;99700.34;5468242;26;20543;-73
2024/04/16 02:17:16;;;;;;;0.57;0.30;;;;;;;20.39;41.24;99692.41;5444470;26;20593;-74
2024/04/16 02:19:43;;;;;;;0.32;0.20;;;;;;;20.37;41.96;99689.19;5475145;26;20008;-74
2024/04/16 02:22:09;;;;;;;0.52;0.20;;;;;;;20.37;41.91;99688.38;5472585;26;20073;-73
2024/04/16 02:24:35;;;;;;;0.68;0.30;;;;;;;20.39;41.46;99681.84;5444421;26;20006;-74
2024/04/16 02:27:01;;;;;;;0.38;0.20;;;;;;;20.39;41.67;99673.91;5440935;26;20003;-74
2024/04/16 02:29:27;;;;;;;0.45;0.30;;;;;;;20.34;41.97;99678.22;5418337;26;20003;-73
2024/04/16 02:31:54;;;;;;;0.98;0.40;;;;;;;20.36;41.64;99665.59;5470203;26;19995;-75
2024/04/16 02:34:20;;;;;;;0.38;0.25;;;;;;;20.32;41.46;99662.56;5477811;26;19998;-72
2024/04/16 02:36:46;;;;;;;0.22;0.20;;;;;;;20.32;41.75;99659.09;5466012;26;19998;-74
2024/04/16 02:39:12;;;;;;;0.43;0.25;;;;;;;20.30;41.86;99648.75;5470967;26;20064;-74
2024/04/16 02:41:39;;;;;;;0.65;0.50;;;;;;;20.33;41.86;99650.16;5473547;26;20236;-74
2024/04/16 02:44:05;;;;;;;0.38;0.20;;;;;;;20.29;41.93;99652.41;5476007;26;20391;-74
2024/04/16 02:46:31;;;;;;;0.20;0.10;;;;;;;20.29;41.48;99643.63;5452624;26;20002;-73
2024/04/16 02:48:56;;;;;;;0.20;0.20;;;;;;;20.30;41.86;99637.38;5471955;26;19998;-74
2024/04/16 02:51:23;;;;;;;1.48;0.38;;;;;;;20.26;41.79;99636.94;5499007;25;20009;-73
2024/04/16 02:53:48;;;;;;;1.45;0.30;;;;;;;20.29;41.24;99639.19;5479404;26;20014;-73
2024/04/16 02:56:14;;;;;;;0.50;0.30;;;;;;;20.30;41.60;99642.66;5409358;26;20815;-73
2024/04/16 02:58:43;;;;;;;0.47;0.20;;;;;;;20.26;41.53;99631.66;5478142;26;20291;-73
2024/04/16 03:01:09;;;;;;;0.80;0.40;;;;;;;20.27;41.53;99629.81;5476765;26;20014;-74
2024/04/16 03:03:37;;;;;;;0.30;0.28;;;;;;;20.23;42.05;99626.81;5448051;26;20003;-75
2024/04/16 03:06:04;;;;;;;0.30;0.25;;;;;;;20.22;42.10;99628.63;5476739;26;20333;-74
2024/04/16 03:08:30;;;;;;;0.40;0.30;;;;;;;20.26;41.38;99622.91;5474987;26;20002;-74
2024/04/16 03:11:01;;;;;;;0.45;0.20;;;;;;;20.22;41.74;99619.91;5476438;26;20054;-74
2024/04/16 03:13:27;;;;;;;0.10;0.10;;;;;;;20.25;41.96;99613.38;5482565;26;20718;-73
2024/04/16 03:15:53;;;;;;;0.60;0.20;;;;;;;20.19;41.64;99607.09;5481896;26;19994;-73
2024/04/16 03:18:19;;;;;;;0.55;0.15;;;;;;;20.19;42.06;99605.28;5480182;26;20009;-74
2024/04/16 03:20:47;;;;;;;0.38;0.28;;;;;;;20.19;41.58;99600.00;5481664;26;20010;-74
2024/04/16 03:23:14;;;;;;;0.30;0.20;;;;;;;20.18;41.66;99598.38;5477159;26;20002;-74
2024/04/16 03:25:43;;;;;;;0.47;0.30;;;;;;;20.23;42.04;99595.88;5450386;26;20783;-74
2024/04/16 03:28:10;;;;;;;0.40;0.30;;;;;;;20.21;41.82;99587.38;5439599;26;20018;-74
2024/04/16 03:30:36;;;;;;;0.73;0.30;;;;;;;20.20;41.76;99584.94;5510979;25;20770;-73
2024/04/16 03:33:02;;;;;;;0.20;0.20;;;;;;;20.16;41.67;99573.97;5451806;26;20007;-75
2024/04/16 03:35:28;;;;;;;0.13;0.10;;;;;;;20.18;41.83;99579.06;5482151;26;20006;-74
2024/04/16 03:37:54;;;;;;;0.30;0.20;;;;;;;20.19;41.58;99570.91;5481430;26;19999;-74
2024/04/16 03:40:21;;;;;;;0.50;0.20;;;;;;;20.15;41.74;99567.06;5447490;26;19998;-73
2024/04/16 03:42:47;;;;;;;0.20;0.10;;;;;;;20.16;41.48;99567.88;5477973;26;20037;-73
2024/04/16 03:45:13;;;;;;;0.28;0.13;;;;;;;20.18;41.75;99573.78;5476597;26;19995;-73
2024/04/16 03:47:39;;;;;;;0.40;0.30;;;;;;;20.16;41.85;99568.69;5475718;26;20638;-74
2024/04/16 03:50:05;;;;;;;0.30;0.20;;;;;;;20.17;42.03;99569.50;5449114;26;20025;-74
2024/04/16 03:52:31;;;;;;;0.25;0.25;;;;;;;20.14;41.52;99564.66;5472871;26;20748;-73
2024/04/16 03:54:57;;;;;;;0.60;0.30;;;;;;;20.13;42.01;99560.38;5470878;26;19998;-74
2024/04/16 03:57:23;;;;;;;0.55;0.17;;;;;;;20.14;42.01;99554.88;5477154;26;20041;-73
2024/04/16 04:02:37;;;;;;;0.32;0.22;;;;;;;20.14;41.64;99546.97;5469861;26;20024;-74
2024/04/16 04:05:03;;;;;;;0.68;0.40;;;;;;;20.11;42.05;99546.56;5416281;26;20008;-74
2024/04/16 04:07:29;;;;;;;1.00;0.20;;;;;;;20.10;41.47;99548.38;5478703;26;19994;-74
2024/04/16 04:09:55;;;;;;;0.10;0.10;;;;;;;20.12;41.58;99550.84;5443306;26;20824;-74
2024/04/16 04:12:21;;;;;;;0.10;0.10;;;;;;;20.11;41.34;99555.31;5477400;26;19998;-75
2024/04/16 04:14:47;;;;;;;0.10;0.10;;;;;;;20.07;41.92;99551.44;5447110;26;20025;-76
2024/04/16 04:17:13;;;;;;;0.77;0.50;;;;;;;20.08;41.83;99545.16;5474325;26;19994;-74
2024/04/16 04:19:39;;;;;;;0.75;0.30;;;;;;;20.08;41.84;99546.97;5446361;26;20009;-75
2024/04/16 04:22:05;;;;;;;0.50;0.20;;;;;;;20.08;41.74;99531.13;5443919;26;19994;-74
2024/04/16 04:24:31;;;;;;;0.28;0.20;;;;;;;20.07;41.77;99532.16;5475742;26;20075;-74
2024/04/16 04:26:57;;;;;;;0.10;0.10;;;;;;;20.05;41.96;99526.25;5472380;26;20400;-74
2024/04/16 04:29:23;;;;;;;0.13;0.10;;;;;;;20.06;41.93;99526.06;5448040;26;20013;-75
2024/04/16 04:31:49;;;;;;;0.60;0.25;;;;;;;20.06;41.66;99526.06;5444139;26;20010;-73
2024/04/16 04:34:15;;;;;;;0.20;0.20;;;;;;;20.10;41.65;99516.66;5440706;26;20033;-74
2024/04/16 04:36:41;;;;;;;0.30;0.30;;;;;;;20.08;41.46;99510.78;5473056;26;19994;-74
2024/04/16 04:39:07;;;;;;;0.40;0.20;;;;;;;20.06;41.59;99512.84;5442369;26;20009;-75
2024/04/16 04:41:33;;;;;;;1.27;0.40;;;;;;;20.09;41.64;99509.75;5476854;26;19998;-74
2024/04/16 04:44:00;;;;;;;0.17;0.10;;;;;;;20.06;42.12;99507.56;5440522;26;20610;-74
2024/04/16 04:46:27;;;;;;;0.40;0.20;;;;;;;20.06;42.04;99512.03;5470257;26;20537;-75
2024/04/16 04:48:53;;;;;;;0.43;0.30;;;;;;;20.02;41.49;99503.72;5473959;26;20335;-76
2024/04/16 04:51:19;;;;;;;0.32;0.22;;;;;;;20.05;41.91;99499.84;5439705;26;19998;-75
2024/04/16 04:53:45;;;;;;;0.47;0.10;;;;;;;20.05;41.82;99497.19;5468441;26;20045;-76
2024/04/16 04:56:11;;;;;;;0.10;0.10;;;;;;;20.04;41.89;99492.94;5472972;26;20402;-74
2024/04/16 04:58:37;;;;;;;0.35;0.22;;;;;;;20.01;41.94;99494.19;5445672;26;20002;-74
2024/04/16 05:01:03;;;;;;;0.10;0.10;;;;;;;20.01;41.78;99494.19;5440316;26;20063;-74
2024/04/16 05:03:29;;;;;;;0.47;0.22;;;;;;;20.01;41.58;99496.81;5442898;26;20006;-74
2024/04/16 05:05:55;;;;;;;0.70;0.20;;;;;;;19.97;41.50;99484.25;5471090;26;20299;-75
2024/04/16 05:08:23;;;;;;;0.68;0.30;;;;;;;19.97;41.74;99493.00;5471869;26;20399;-75
2024/04/16 05:10:51;;;;;;;0.20;0.20;;;;;;;19.97;41.91;99485.06;5472263;26;20346;-74
2024/04/16 05:13:17;;;;;;;0.10;0.10;;;;;;;19.98;42.06;99494.59;5445250;26;20012;-75
2024/04/16 05:15:45;;;;;;;0.63;0.30;;;;;;;19.95;41.59;99488.94;5474758;26;20013;-75
2024/04/16 05:18:12;;;;;;;0.73;0.25;;;;;;;19.91;41.98;99491.19;5472297;26;19998;-75
2024/04/16 05:20:38;;;;;;;0.03;0.03;;;;;;;19.93;42.32;99483.88;5471719;26;20010;-74
2024/04/16 05:23:04;;;;;;;0.30;0.15;;;;;;;20.02;41.60;99481.78;5445204;26;20276;-74
2024/04/16 05:25:30;;;;;;;0.28;0.25;;;;;;;20.11;41.85;99480.50;5471770;26;20010;-75
2024/04/16 05:27:57;;;;;;;0.50;0.20;;;;;;;20.15;42.08;99486.97;5473383;26;20017;-74
2024/04/16 05:30:23;;;;;;;0.10;0.10;;;;;;;20.12;41.81;99492.69;5473737;26;20002;-74
2024/04/16 05:32:53;;;;;;;0.25;0.20;;;;;;;20.17;41.91;99492.84;5475135;26;19998;-74
2024/04/16 05:35:19;;;;;;;0.30;0.30;;;;;;;20.14;41.52;99495.94;5475122;26;22878;-75
2024/04/16 05:37:45;;;;;;;0.15;0.13;;;;;;;20.17;41.37;99495.50;5443495;26;20021;-75
2024/04/16 05:40:11;;;;;;;0.60;0.32;;;;;;;20.14;41.75;99483.53;5443851;26;20020;-74
2024/04/16 05:42:37;;;;;;;0.10;0.10;;;;;;;20.19;41.55;99498.75;5472833;26;19998;-74
2024/04/16 05:45:04;;;;;;;1.02;0.47;;;;;;;20.19;41.34;99501.38;5474892;26;20034;-74
2024/04/16 05:47:30;;;;;;;0.28;0.20;;;;;;;20.16;42.07;99502.63;5444493;26;19997;-75
2024/04/16 05:49:58;;;;;;;0.30;0.20;;;;;;;20.14;41.86;99507.31;5476655;26;20359;-75
2024/04/16 05:52:24;;;;;;;0.93;0.30;;;;;;;20.14;41.61;99507.31;5472037;26;20447;-74
2024/04/16 05:54:50;;;;;;;0.32;0.10;;;;;;;20.11;42.03;99506.94;5471308;26;20009;-74
2024/04/16 05:57:16;;;;;;;0.65;0.20;;;;;;;20.14;41.91;99519.72;5473140;26;20013;-74
2024/04/16 05:59:42;;;;;;;0.65;0.30;;;;;;;20.13;41.97;99512.81;5475572;26;20009;-73
2024/04/16 06:02:09;;;;;;;0.20;0.20;;;;;;;20.12;41.89;99517.28;5439623;26;19995;-74
2024/04/16 06:04:35;;;;;;;0.13;0.10;;;;;;;20.12;41.58;99524.41;5476756;26;19998;-74
2024/04/16 06:07:01;;;;;;;0.30;0.20;;;;;;;20.13;41.97;99531.31;5444101;26;20013;-74
2024/04/16 06:09:27;;;;;;;0.30;0.10;;;;;;;20.10;42.21;99529.88;5469015;26;20006;-74
2024/04/16 06:11:53;;;;;;;0.60;0.30;;;;;;;20.09;41.72;99538.03;5474409;26;20333;-75
2024/04/16 06:14:19;;;;;;;0.50;0.20;;;;;;;20.11;42.05;99536.00;5414731;26;20013;-74
2024/04/16 06:16:45;;;;;;;0.13;0.10;;;;;;;20.04;42.20;99536.03;5470134;26;20018;-74
2024/04/16 06:19:11;;;;;;;0.10;0.10;;;;;;;20.06;41.94;99549.03;5476341;26;20014;-74
2024/04/16 06:21:37;;;;;;;0.17;0.15;;;;;;;20.06;41.58;99541.91;5451832;26;20021;-74
2024/04/16 06:24:04;;;;;;;0.30;0.20;;;;;;;20.09;42.17;99545.94;5448497;26;20021;-75
2024/04/16 06:26:31;;;;;;;0.47;0.35;;;;;;;20.06;41.95;99549.84;5473804;26;20722;-75
2024/04/16 06:28:58;;;;;;;0.70;0.20;;;;;;;20.06;42.08;99551.66;5470901;26;20648;-75
2024/04/16 06:31:24;;;;;;;0.40;0.30;;;;;;;20.07;42.02;99558.56;5470903;26;20353;-74
2024/04/16 06:33:50;;;;;;;0.20;0.20;;;;;;;20.04;41.92;99562.44;5475347;26;19994;-75
2024/04/16 06:36:17;;;;;;;0.70;0.15;;;;;;;20.05;42.24;99552.69;5448454;26;19998;-74
2024/04/16 06:38:44;;;;;;;0.65;0.20;;;;;;;20.06;42.14;99555.13;5474187;26;20025;-75
2024/04/16 06:41:10;;;;;;;0.55;0.30;;;;;;;19.99;41.85;99541.16;5475750;26;20001;-75
2024/04/16 06:43:36;;;;;;;0.60;0.20;;;;;;;20.03;41.64;99544.97;5476125;26;20063;-74
2024/04/16 06:46:02;;;;;;;0.13;0.10;;;;;;;20.02;41.98;99548.63;5469670;26;20047;-74
2024/04/16 06:48:30;;;;;;;0.15;0.10;;;;;;;19.99;41.78;99554.34;5477737;26;20534;-76
2024/04/16 06:50:57;;;;;;;0.30;0.20;;;;;;;20.03;41.82;99560.84;5446204;26;20582;-74
2024/04/16 06:53:23;;;;;;;0.40;0.20;;;;;;;20.03;42.18;99565.31;5477081;26;20018;-72
2024/04/16 06:56:04;;;;;;;0.73;0.10;;;;;;;20.01;42.11;99562.88;5469874;26;19998;-73
2024/04/16 06:58:30;;;;;;;0.08;0.08;;;;;;;19.99;41.81;99566.75;5477589;26;20403;-73
2024/04/16 07:00:57;;;;;;;0.28;0.10;;;;;;;20.05;41.69;99579.13;5447609;26;20013;-73
2024/04/16 07:03:24;;;;;;;0.55;0.32;;;;;;;20.20;41.61;99595.50;5473416;26;20007;-74
2024/04/16 07:05:50;;;;;;;0.40;0.10;;;;;;;20.07;42.36;99606.94;5465931;26;20072;-73
2024/04/16 07:08:19;;;;;;;0.40;0.20;;;;;;;20.36;42.18;99625.94;5472263;26;20079;-76
2024/04/16 07:10:48;;;;;;;0.75;0.10;;;;;;;20.52;41.54;99626.28;5445214;26;20022;-71
2024/04/16 07:13:16;;;;;;;0.17;0.10;;;;;;;20.62;41.79;99641.66;5472612;26;20119;-72
2024/04/16 07:15:42;;;;;;;2.67;0.35;;;;;;;20.65;41.11;99638.63;5473498;26;20009;-71
2024/04/16 07:18:08;;;;;;;0.00;0.00;;;;;;;20.70;40.87;99659.13;5470266;26;20012;-71
2024/04/16 07:20:34;;;;;;;0.30;0.20;;;;;;;20.70;41.04;99664.41;5475624;26;19995;-71
2024/04/16 07:23:01;;;;;;;0.57;0.28;;;;;;;20.70;40.88;99665.22;5474130;26;20005;-71
2024/04/16 07:25:27;;;;;;;0.10;0.10;;;;;;;20.76;40.67;99669.66;5446357;26;19994;-71
2024/04/16 07:27:53;;;;;;;0.80;0.20;;;;;;;20.80;40.68;99670.84;5468166;26;20021;-71
2024/04/16 07:30:19;;;;;;;0.60;0.20;;;;;;;20.86;40.89;99681.63;5471766;26;19994;-71
2024/04/16 07:32:46;;;;;;;0.40;0.10;;;;;;;20.91;40.63;99689.72;5475589;26;20733;-71
2024/04/16 07:35:12;;;;;;;1.00;0.30;;;;;;;20.90;40.86;99688.91;5475150;26;20008;-71
2024/04/16 07:37:38;;;;;;;1.63;0.20;;;;;;;20.93;40.56;99701.72;5473378;26;20016;-72
2024/04/16 07:40:04;;;;;;;0.20;0.20;;;;;;;20.95;40.54;99704.13;5473100;26;20014;-71
2024/04/16 07:42:30;;;;;;;0.70;0.28;;;;;;;20.93;40.58;99712.28;5388952;26;20030;-71
2024/04/16 07:44:56;;;;;;;0.43;0.20;;;;;;;20.89;40.78;99713.75;5472352;26;20009;-70
2024/04/16 07:47:22;;;;;;;0.95;0.20;;;;;;;20.88;40.95;99717.41;5470741;26;20006;-71
2024/04/16 07:49:48;;;;;;;0.95;0.30;;;;;;;20.90;40.49;99720.66;5473274;26;20338;-71
2024/04/16 07:52:14;;;;;;;0.25;0.20;;;;;;;20.88;40.57;99719.25;5442093;26;20006;-69
2024/04/16 07:54:40;;;;;;;1.30;0.10;;;;;;;20.88;41.18;99735.13;5440203;26;20010;-67
2024/04/16 07:57:06;;;;;;;0.60;0.20;;;;;;;20.91;40.84;99732.88;5467858;26;20010;-68
2024/04/16 07:59:32;;;;;;;0.17;0.10;;;;;;;20.91;40.40;99740.81;5466956;26;20002;-67
2024/04/16 08:01:58;;;;;;;0.25;0.17;;;;;;;20.93;40.48;99756.47;5463925;26;20025;-67
2024/04/16 08:04:24;;;;;;;2.08;0.30;;;;;;;20.90;40.60;99767.47;5470902;26;20034;-67
2024/04/16 08:06:50;;;;;;;0.30;0.10;;;;;;;20.91;40.62;99777.84;5470322;26;20010;-67
2024/04/16 08:09:16;;;;;;;0.30;0.20;;;;;;;20.93;40.28;99785.59;5469842;26;20009;-67
2024/04/16 08:11:43;;;;;;;1.85;0.20;;;;;;;20.94;40.79;99792.50;5468817;26;20014;-67
2024/04/16 08:14:09;;;;;;;0.40;0.10;;;;;;;20.89;40.57;99802.91;5469989;26;20290;-67
2024/04/16 08:16:35;;;;;;;0.50;0.20;;;;;;;20.87;40.77;99803.13;5467238;26;20014;-67
2024/04/16 08:19:01;;;;;;;0.22;0.10;;;;;;;20.89;41.09;99811.66;5472177;26;20674;-67
2024/04/16 08:21:27;;;;;;;0.30;0.10;;;;;;;20.88;40.61;99819.81;5471360;26;20021;-66
2024/04/16 08:23:53;;;;;;;0.65;0.25;;;;;;;20.85;40.67;99825.53;5471161;26;19999;-68
2024/04/16 08:26:19;;;;;;;1.30;0.25;;;;;;;20.83;40.59;99828.38;5466206;26;19998;-67
2024/04/16 08:28:45;;;;;;;1.13;0.20;;;;;;;20.81;41.21;99835.69;5471788;26;20006;-67
2024/04/16 08:31:11;;;;;;;2.75;0.40;;;;;;;20.81;40.51;99836.50;5471077;26;20401;-67
2024/04/16 08:33:39;;;;;;;1.27;0.30;;;;;;;20.76;40.81;99852.22;5437993;26;20073;-66
2024/04/16 08:36:05;;;;;;;3.22;0.20;;;;;;;20.79;40.46;99853.63;5463225;26;20004;-68
2024/04/16 08:38:31;;;;;;;1.40;0.32;;;;;;;20.76;40.45;99849.56;5466039;26;19998;-67
2024/04/16 08:40:57;;;;;;;1.25;0.20;;;;;;;20.77;40.32;99863.59;5433707;26;20456;-65
2024/04/16 08:43:24;;;;;;;1.17;0.20;;;;;;;20.73;40.90;99879.09;5463530;26;19998;-67
2024/04/16 08:45:51;;;;;;;2.15;0.30;;;;;;;20.75;40.91;99884.16;5459102;26;20069;-63
2024/04/16 08:48:19;;;;;;;1.10;0.20;;;;;;;20.87;40.50;99890.44;5401122;26;20006;-71
2024/04/16 08:50:46;;;;;;;0.30;0.20;;;;;;;20.99;40.43;99894.03;5465055;26;20010;-70
2024/04/16 08:53:13;;;;;;;0.30;0.20;;;;;;;21.04;40.25;99904.84;5461430;26;20002;-72
2024/04/16 08:55:41;;;;;;;2.50;0.30;;;;;;;21.04;40.64;99902.19;5455881;26;20046;-70
2024/04/16 08:58:07;;;;;;;3.25;0.40;;;;;;;21.16;40.25;99901.50;5468806;26;20003;-70
2024/04/16 09:00:33;;;;;;;0.75;0.20;;;;;;;21.10;40.58;99919.88;5462264;26;20002;-68
2024/04/16 09:02:59;;;;;;;1.63;0.30;;;;;;;21.07;40.36;99922.94;5417914;26;20033;-68
2024/04/16 09:05:25;;;;;;;1.25;0.30;;;;;;;21.05;40.75;99932.13;5456948;26;20427;-68
2024/04/16 09:07:52;;;;;;;0.47;0.20;;;;;;;21.07;40.13;99936.19;5378792;26;20002;-68
2024/04/16 09:10:25;;;;;;;0.90;0.13;;;;;;;21.04;40.50;99941.09;5463509;26;19998;-68
2024/04/16 09:12:53;;;;;;;1.65;0.30;;;;;;;21.01;40.46;99955.56;5419189;26;20393;-69
2024/04/16 09:15:20;;;;;;;0.82;0.30;;;;;;;21.03;40.41;99958.81;5462111;26;20009;-68
2024/04/16 09:17:49;;;;;;;0.55;0.08;;;;;;;20.97;40.60;99967.56;5409997;26;20018;-68
2024/04/16 09:20:18;;;;;;;9.27;0.60;;;;;;;21.03;40.23;99966.75;5429446;26;20005;-66
2024/04/16 09:22:46;;;;;;;1.20;0.40;;;;;;;21.15;40.38;99977.47;5390756;26;20029;-68
2024/04/16 09:25:12;;;;;;;1.63;0.68;;;;;;;21.09;40.61;99992.38;5460689;26;21320;-68
2024/04/16 09:27:38;;;;;;;1.30;0.25;;;;;;;21.07;40.62;99993.59;5395363;26;20485;-65
2024/04/16 09:30:11;;;;;;;2.20;0.50;;;;;;;21.01;40.80;100000.56;5441876;26;20369;-66
2024/04/16 09:32:37;;;;;;;1.13;0.30;;;;;;;21.15;40.50;100013.72;5460804;26;20001;-64
2024/04/16 09:35:04;;;;;;;0.55;0.20;;;;;;;21.17;40.52;100027.56;5366113;26;20539;-65
2024/04/16 09:37:30;;;;;;;1.10;0.40;;;;;;;21.27;40.63;100025.34;5461065;26;20025;-65
2024/04/16 09:39:59;;;;;;;1.80;0.40;;;;;;;21.25;40.67;100024.75;5395871;26;20297;-63
2024/04/16 09:42:31;;;;;;;1.98;0.30;;;;;;;21.29;40.19;100029.41;5443579;26;20031;-62
2024/04/16 09:44:58;;;;;;;3.10;0.85;;;;;;;21.32;40.71;100038.78;5395949;26;20608;-63
2024/04/16 09:47:25;;;;;;;3.25;0.50;;;;;;;21.33;40.45;100030.63;5450527;26;19998;-63
2024/04/16 09:49:55;;;;;;;1.35;0.50;;;;;;;21.40;40.20;100042.03;5404554;26;20554;-68
2024/04/16 09:52:21;;;;;;;;;;;;;;;21.37;40.97;100053.03;5461081;26;20036;-64
2024/04/16 09:54:49;;;;;;;1.33;0.30;;;;;;;21.43;40.39;100054.03;5448627;26;19932;-68
2024/04/16 09:57:16;;;;;;;0.82;0.40;;;;;;;21.49;40.28;100061.13;5459328;26;19998;-74
2024/04/16 09:59:43;;;;;;;3.70;0.38;;;;;;;21.58;40.35;100065.19;5381962;26;23144;-70
2024/04/16 10:02:10;;;;;;;5.93;0.60;;;;;;;21.68;40.15;100077.97;5463663;26;19999;-67
2024/04/16 10:04:41;;;;;;;1.05;0.38;;;;;;;21.66;40.10;100074.72;5420838;26;19999;-62
2024/04/16 10:07:07;;;;;;;2.00;0.52;;;;;;;21.75;40.25;100077.97;5467867;26;20016;-63
2024/04/16 10:09:38;;;;;;;3.65;0.50;;;;;;;21.74;40.03;100074.50;5389303;26;20002;-68
2024/04/16 10:12:08;;;;;;;2.47;0.40;;;;;;;21.86;39.61;100080.75;5410722;26;20009;-64
2024/04/16 10:14:40;;;;;;;3.72;0.50;;;;;;;21.94;39.75;100092.97;5417367;26;20876;-67
2024/04/16 10:17:12;;;;;;;2.35;0.70;;;;;;;21.95;38.61;100099.91;5435892;26;20002;-68
2024/04/16 10:19:38;;;;;;;2.60;0.32;;;;;;;21.73;39.22;100103.88;5417385;26;20499;-67
2024/04/16 10:22:14;;;;;;;1.90;0.50;;;;;;;21.64;39.69;100116.53;5453146;26;20005;-67
2024/04/16 10:24:50;;;;;;;0.60;0.20;;;;;;;21.57;39.98;100115.72;5400174;26;20021;-67
2024/04/16 10:27:16;;;;;;;1.92;0.30;;;;;;;21.54;40.02;100121.41;5461136;26;20005;-67
2024/04/16 10:29:42;;;;;;;1.15;0.30;;;;;;;21.55;39.63;100133.69;5407407;26;20010;-68
2024/04/16 10:32:10;;;;;;;0.70;0.30;;;;;;;21.57;39.71;100135.09;5455373;26;20006;-68
2024/04/16 10:34:41;;;;;;;2.83;0.50;;;;;;;21.54;40.17;100148.72;5418812;26;20091;-68
2024/04/16 10:37:08;;;;;;;1.88;0.38;;;;;;;21.52;39.93;100145.47;5453362;26;20006;-68
2024/04/16 10:39:34;;;;;;;0.28;0.28;;;;;;;21.53;40.05;100143.63;5466875;26;20002;-68
2024/04/16 10:42:02;;;;;;;0.63;0.30;;;;;;;21.53;39.86;100154.22;5412364;26;20223;-67
2024/04/16 10:44:30;;;;;;;1.15;0.32;;;;;;;21.55;39.89;100158.34;5465885;26;19994;-67
2024/04/16 10:46:57;;;;;;;0.77;0.40;;;;;;;21.55;40.03;100166.28;5377525;26;20689;-68
2024/04/16 10:49:26;;;;;;;1.17;0.40;;;;;;;21.54;39.90;100169.09;5424698;26;20626;-67
2024/04/16 10:51:54;;;;;;;1.35;0.40;;;;;;;21.53;39.59;100165.66;5367263;26;20894;-64
2024/04/16 10:54:20;;;;;;;0.47;0.20;;;;;;;21.54;39.86;100174.41;5419479;26;20067;-64
2024/04/16 10:56:50;;;;;;;0.90;0.50;;;;;;;21.53;40.10;100184.19;5365697;26;20022;-67
2024/04/16 10:59:16;;;;;;;;;;;;;;;21.50;40.10;100184.59;5420439;26;20150;-66
2024/04/16 11:01:43;;;;;;;1.42;0.28;;;;;;;21.51;39.86;100186.22;5401409;26;19924;-66
2024/04/16 11:04:17;;;;;;;0.63;0.40;;;;;;;21.52;39.65;100198.47;5429581;26;20017;-67
2024/04/16 11:06:45;;;;;;;2.03;0.40;;;;;;;21.53;39.54;100201.91;5364788;26;22795;-65
2024/04/16 11:09:12;;;;;;;1.40;0.38;;;;;;;21.53;39.87;100200.09;5425655;26;20079;-64
2024/04/16 11:11:41;;;;;;;0.65;0.40;;;;;;;21.55;39.44;100207.84;5376563;26;20003;-63
2024/04/16 11:14:08;;;;;;;1.05;0.40;;;;;;;21.54;39.80;100206.19;5399294;26;20014;-64
2024/04/16 11:16:37;;;;;;;0.80;0.35;;;;;;;21.54;39.60;100214.97;5388853;26;20431;-64
2024/04/16 11:19:03;;;;;;;1.05;0.38;;;;;;;21.51;39.39;100211.91;5387410;26;20699;-65
2024/04/16 11:21:42;;;;;;;0.80;0.30;;;;;;;21.55;39.63;100219.25;5404681;26;19998;-63
2024/04/16 11:24:09;;;;;;;0.90;0.30;;;;;;;21.56;39.51;100222.72;5391940;26;20010;-64
2024/04/16 11:26:37;;;;;;;0.65;0.30;;;;;;;21.59;39.71;100227.63;5410568;26;20420;-63
2024/04/16 11:29:04;;;;;;;1.10;0.45;;;;;;;21.58;39.99;100231.28;5435171;26;20464;-63
2024/04/16 11:31:34;;;;;;;0.90;0.30;;;;;;;21.59;39.80;100241.66;5403531;26;20304;-59